createdAt,value
2023-01-29T00:00:34.315Z,41.70
2023-01-29T00:01:34.303Z,39.80
2023-01-29T00:02:34.297Z,38.30
2023-01-29T00:03:34.296Z,38.80
2023-01-29T00:04:34.274Z,37.70
2023-01-29T00:05:34.265Z,38.70
2023-01-29T00:06:34.256Z,40.20
2023-01-29T00:07:34.249Z,40.10
2023-01-29T00:08:34.256Z,41.70
2023-01-29T00:09:34.227Z,40.40
2023-01-29T00:10:34.219Z,38.80
2023-01-29T00:11:34.206Z,37.10
2023-01-29T00:12:34.200Z,38.40
2023-01-29T00:13:34.199Z,38.40
2023-01-29T00:14:34.176Z,36.90
2023-01-29T00:15:34.160Z,38.00
2023-01-29T00:16:34.159Z,38.50
2023-01-29T00:17:34.139Z,39.60
2023-01-29T00:18:34.151Z,39.60
2023-01-29T00:19:34.120Z,39.00
2023-01-29T00:20:34.136Z,40.10
2023-01-29T00:21:34.118Z,40.70
2023-01-29T00:22:34.114Z,39.90
2023-01-29T00:23:34.101Z,38.20
2023-01-29T00:24:34.079Z,38.30
2023-01-29T00:25:34.062Z,37.70
2023-01-29T00:26:34.056Z,39.20
2023-01-29T00:27:34.050Z,37.10
2023-01-29T00:28:34.054Z,37.90
2023-01-29T00:29:34.026Z,37.70
2023-01-29T00:30:34.023Z,38.30
2023-01-29T00:31:34.080Z,39.90
2023-01-29T00:32:33.996Z,42.20
2023-01-29T00:33:34.014Z,40.30
2023-01-29T00:34:33.980Z,41.70
2023-01-29T00:35:33.964Z,41.10
2023-01-29T00:36:33.959Z,41.30
2023-01-29T00:37:33.943Z,38.90
2023-01-29T00:38:33.955Z,40.00
2023-01-29T00:39:47.136Z,40.80
2023-01-29T00:40:34.915Z,40.50
2023-01-29T00:41:33.905Z,40.60
2023-01-29T00:42:33.905Z,41.20
2023-01-29T00:43:33.884Z,40.60
2023-01-29T00:44:33.900Z,40.80
2023-01-29T00:45:33.860Z,39.90
2023-01-29T00:46:33.920Z,42.90
2023-01-29T00:47:34.029Z,43.10
2023-01-29T00:48:33.838Z,42.70
2023-01-29T00:49:33.842Z,41.90
2023-01-29T00:50:33.817Z,42.40
2023-01-29T00:51:33.798Z,42.60
2023-01-29T00:52:33.804Z,41.20
2023-01-29T00:53:33.780Z,41.30
2023-01-29T00:54:33.788Z,41.40
2023-01-29T00:55:33.781Z,42.40
2023-01-29T00:56:33.757Z,41.20
2023-01-29T00:57:33.775Z,41.60
2023-01-29T00:58:33.732Z,42.50
2023-01-29T00:59:33.735Z,42.30
2023-01-29T01:00:33.776Z,40.60
2023-01-29T01:01:33.702Z,40.20
2023-01-29T01:02:33.700Z,39.00
2023-01-29T01:03:33.681Z,42.00
2023-01-29T01:04:35.063Z,41.90
2023-01-29T01:05:33.661Z,40.80
2023-01-29T01:06:33.652Z,39.20
2023-01-29T01:07:33.641Z,42.50
2023-01-29T01:08:33.645Z,41.80
2023-01-29T01:09:33.677Z,42.20
2023-01-29T01:10:33.615Z,42.00
2023-01-29T01:11:33.603Z,43.60
2023-01-29T01:12:33.595Z,43.20
2023-01-29T01:13:33.583Z,41.50
2023-01-29T01:14:33.603Z,42.80
2023-01-29T01:15:33.574Z,41.80
2023-01-29T01:16:33.607Z,43.20
2023-01-29T01:17:33.542Z,42.10
2023-01-29T01:18:33.533Z,42.60
2023-01-29T01:19:33.536Z,44.20
2023-01-29T01:20:33.517Z,40.90
2023-01-29T01:21:33.505Z,42.10
2023-01-29T01:22:33.493Z,42.00
2023-01-29T01:23:33.475Z,43.40
2023-01-29T01:24:33.495Z,43.30
2023-01-29T01:25:33.501Z,44.30
2023-01-29T01:26:33.457Z,41.30
2023-01-29T01:27:33.444Z,41.80
2023-01-29T01:28:33.433Z,43.20
2023-01-29T01:29:33.469Z,42.80
2023-01-29T01:30:33.447Z,44.10
2023-01-29T01:31:33.508Z,45.00
2023-01-29T01:32:33.399Z,44.40
2023-01-29T01:33:33.384Z,44.70
2023-01-29T01:34:33.396Z,44.50
2023-01-29T01:35:33.366Z,43.70
2023-01-29T01:36:33.347Z,45.30
2023-01-29T01:37:33.336Z,43.30
2023-01-29T01:38:33.332Z,41.50
2023-01-29T01:39:33.338Z,43.70
2023-01-29T01:40:33.309Z,44.50
2023-01-29T01:41:33.297Z,39.90
2023-01-29T01:42:33.299Z,43.80
2023-01-29T01:43:33.281Z,42.70
2023-01-29T01:44:33.289Z,39.90
2023-01-29T01:45:33.336Z,40.70
2023-01-29T01:46:33.250Z,40.00
2023-01-29T01:47:33.230Z,38.00
2023-01-29T01:48:33.231Z,38.50
2023-01-29T01:49:33.231Z,41.90
2023-01-29T01:50:33.216Z,42.10
2023-01-29T01:51:33.191Z,42.40
2023-01-29T01:52:33.199Z,42.90
2023-01-29T01:53:33.182Z,42.40
2023-01-29T01:54:33.184Z,41.30
2023-01-29T01:55:33.151Z,38.10
2023-01-29T01:56:33.154Z,43.00
2023-01-29T01:57:33.131Z,44.70
2023-01-29T01:58:33.123Z,39.70
2023-01-29T01:59:33.137Z,43.40
2023-01-29T02:00:33.112Z,42.40
2023-01-29T02:01:33.092Z,41.70
2023-01-29T02:02:33.121Z,42.70
2023-01-29T02:03:33.073Z,42.90
2023-01-29T02:04:33.093Z,43.80
2023-01-29T02:05:33.057Z,44.40
2023-01-29T02:06:33.050Z,42.40
2023-01-29T02:07:33.035Z,42.20
2023-01-29T02:08:33.024Z,42.10
2023-01-29T02:09:33.025Z,41.20
2023-01-29T02:10:33.006Z,41.00
2023-01-29T02:11:32.997Z,38.60
2023-01-29T02:12:32.992Z,43.10
2023-01-29T02:13:32.967Z,41.10
2023-01-29T02:14:32.984Z,43.90
2023-01-29T02:15:32.954Z,41.90
2023-01-29T02:16:32.950Z,41.70
2023-01-29T02:17:32.962Z,42.00
2023-01-29T02:18:32.927Z,40.60
2023-01-29T02:19:32.935Z,40.30
2023-01-29T02:20:32.913Z,38.60
2023-01-29T02:21:32.918Z,38.40
2023-01-29T02:22:32.887Z,40.10
2023-01-29T02:23:32.922Z,40.20
2023-01-29T02:24:32.918Z,39.80
2023-01-29T02:25:32.849Z,33.70
2023-01-29T02:26:32.841Z,39.50
2023-01-29T02:27:32.826Z,38.90
2023-01-29T02:28:32.839Z,38.30
2023-01-29T02:29:32.828Z,37.80
2023-01-29T02:30:32.809Z,38.70
2023-01-29T02:31:32.841Z,39.20
2023-01-29T02:32:32.782Z,38.10
2023-01-29T02:33:32.780Z,37.30
2023-01-29T02:34:32.785Z,39.70
2023-01-29T02:35:32.759Z,37.40
2023-01-29T02:36:32.742Z,38.00
2023-01-29T02:37:32.732Z,38.10
2023-01-29T02:38:32.721Z,38.60
2023-01-29T02:39:32.721Z,34.90
2023-01-29T02:40:32.699Z,36.50
2023-01-29T02:41:32.682Z,37.50
2023-01-29T02:42:32.681Z,38.40
2023-01-29T02:43:32.727Z,37.20
2023-01-29T02:44:32.686Z,36.90
2023-01-29T02:45:32.690Z,35.80
2023-01-29T02:46:32.633Z,35.40
2023-01-29T02:47:32.627Z,37.30
2023-01-29T02:48:32.623Z,36.40
2023-01-29T02:49:32.621Z,36.90
2023-01-29T02:50:32.594Z,36.50
2023-01-29T02:51:32.592Z,38.20
2023-01-29T02:52:32.585Z,36.50
2023-01-29T02:53:32.571Z,36.30
2023-01-29T02:54:32.587Z,36.50
2023-01-29T02:55:32.545Z,37.00
2023-01-29T02:56:32.549Z,31.40
2023-01-29T02:57:32.538Z,36.60
2023-01-29T02:58:32.515Z,37.50
2023-01-29T02:59:32.533Z,36.30
2023-01-29T03:00:32.511Z,36.20
2023-01-29T03:01:32.508Z,36.80
2023-01-29T03:02:32.595Z,36.50
2023-01-29T03:03:32.470Z,36.00
2023-01-29T03:04:32.476Z,34.60
2023-01-29T03:05:32.447Z,35.10
2023-01-29T03:06:32.439Z,36.30
2023-01-29T03:07:32.419Z,35.70
2023-01-29T03:08:32.423Z,36.90
2023-01-29T03:09:32.427Z,36.50
2023-01-29T03:10:32.399Z,36.80
2023-01-29T03:11:32.386Z,36.30
2023-01-29T03:12:32.378Z,35.40
2023-01-29T03:13:32.365Z,35.70
2023-01-29T03:14:32.379Z,35.10
2023-01-29T03:15:32.339Z,35.30
2023-01-29T03:16:32.401Z,34.80
2023-01-29T03:17:32.319Z,35.80
2023-01-29T03:18:32.320Z,35.60
2023-01-29T03:19:32.321Z,35.80
2023-01-29T03:20:32.301Z,34.40
2023-01-29T03:21:32.283Z,35.10
2023-01-29T03:22:32.282Z,35.90
2023-01-29T03:23:32.271Z,34.40
2023-01-29T03:24:32.276Z,36.10
2023-01-29T03:25:32.258Z,35.10
2023-01-29T03:26:32.232Z,35.20
2023-01-29T03:27:32.223Z,34.30
2023-01-29T03:28:32.219Z,36.40
2023-01-29T03:29:32.235Z,35.20
2023-01-29T03:30:32.212Z,37.20
2023-01-29T03:31:32.249Z,36.10
2023-01-29T03:32:32.196Z,35.70
2023-01-29T03:33:32.162Z,35.60
2023-01-29T03:34:32.174Z,36.90
2023-01-29T03:35:32.134Z,37.10
2023-01-29T03:36:32.134Z,36.90
2023-01-29T03:37:32.127Z,36.40
2023-01-29T03:38:32.119Z,38.70
2023-01-29T03:39:32.124Z,37.90
2023-01-29T03:40:32.107Z,36.60
2023-01-29T03:41:32.077Z,36.20
2023-01-29T03:42:32.076Z,37.20
2023-01-29T03:43:32.060Z,37.80
2023-01-29T03:44:32.075Z,36.90
2023-01-29T03:45:32.101Z,37.10
2023-01-29T03:46:32.046Z,35.50
2023-01-29T03:47:32.029Z,35.70
2023-01-29T03:48:32.016Z,37.00
2023-01-29T03:49:32.019Z,36.30
2023-01-29T03:50:31.995Z,35.50
2023-01-29T03:51:31.983Z,36.50
2023-01-29T03:52:31.998Z,35.90
2023-01-29T03:53:31.961Z,35.20
2023-01-29T03:54:31.981Z,35.00
2023-01-29T03:55:31.939Z,35.80
2023-01-29T03:56:31.943Z,35.10
2023-01-29T03:57:31.923Z,35.10
2023-01-29T03:58:31.910Z,33.80
2023-01-29T03:59:31.899Z,35.80
2023-01-29T04:00:31.909Z,34.20
2023-01-29T04:01:31.999Z,35.40
2023-01-29T04:02:31.879Z,35.40
2023-01-29T04:03:31.865Z,37.10
2023-01-29T04:04:31.852Z,36.10
2023-01-29T04:05:31.867Z,35.70
2023-01-29T04:06:31.829Z,34.70
2023-01-29T04:07:31.823Z,36.80
2023-01-29T04:08:31.820Z,35.10
2023-01-29T04:09:31.845Z,35.30
2023-01-29T04:10:31.806Z,34.10
2023-01-29T04:11:31.780Z,35.90
2023-01-29T04:12:31.773Z,35.90
2023-01-29T04:13:31.765Z,35.20
2023-01-29T04:14:31.757Z,34.90
2023-01-29T04:15:31.766Z,34.40
2023-01-29T04:16:31.752Z,35.00
2023-01-29T04:17:31.742Z,37.00
2023-01-29T04:18:31.715Z,36.00
2023-01-29T04:19:31.710Z,34.40
2023-01-29T04:20:31.715Z,37.40
2023-01-29T04:21:31.688Z,35.00
2023-01-29T04:22:31.665Z,36.40
2023-01-29T04:23:31.664Z,34.60
2023-01-29T04:24:31.673Z,36.10
2023-01-29T04:25:31.663Z,37.10
2023-01-29T04:26:31.630Z,36.50
2023-01-29T04:27:31.625Z,34.50
2023-01-29T04:28:31.610Z,38.40
2023-01-29T04:29:31.606Z,36.80
2023-01-29T04:30:31.606Z,37.10
2023-01-29T04:31:31.674Z,36.50
2023-01-29T04:32:31.565Z,37.00
2023-01-29T04:33:31.562Z,36.10
2023-01-29T04:34:31.546Z,35.90
2023-01-29T04:35:31.594Z,34.80
2023-01-29T04:36:31.539Z,34.30
2023-01-29T04:37:31.533Z,35.80
2023-01-29T04:38:31.512Z,35.10
2023-01-29T04:39:31.506Z,35.30
2023-01-29T04:40:31.520Z,34.20
2023-01-29T04:41:31.477Z,36.30
2023-01-29T04:42:31.488Z,36.20
2023-01-29T04:43:31.460Z,36.30
2023-01-29T04:44:31.453Z,35.40
2023-01-29T04:45:31.459Z,37.10
2023-01-29T04:46:31.420Z,37.40
2023-01-29T04:47:31.494Z,38.80
2023-01-29T04:48:31.408Z,37.60
2023-01-29T04:49:31.399Z,36.50
2023-01-29T04:50:31.402Z,37.10
2023-01-29T04:51:31.380Z,35.20
2023-01-29T04:52:31.424Z,36.70
2023-01-29T04:53:31.372Z,36.50
2023-01-29T04:54:31.342Z,38.10
2023-01-29T04:55:31.363Z,36.40
2023-01-29T04:56:31.331Z,35.00
2023-01-29T04:57:31.321Z,35.10
2023-01-29T04:58:31.305Z,37.80
2023-01-29T04:59:31.294Z,36.90
2023-01-29T05:00:31.310Z,36.90
2023-01-29T05:01:31.318Z,37.10
2023-01-29T05:02:31.318Z,38.00
2023-01-29T05:03:31.255Z,38.80
2023-01-29T05:04:31.243Z,38.30
2023-01-29T05:05:31.258Z,38.80
2023-01-29T05:06:31.227Z,37.60
2023-01-29T05:07:31.223Z,38.90
2023-01-29T05:08:31.206Z,37.00
2023-01-29T05:09:31.197Z,36.00
2023-01-29T05:10:31.211Z,36.70
2023-01-29T05:11:31.175Z,35.90
2023-01-29T05:12:31.169Z,36.40
2023-01-29T05:13:31.167Z,36.20
2023-01-29T05:14:31.145Z,37.60
2023-01-29T05:15:31.157Z,37.10
2023-01-29T05:16:31.124Z,37.10
2023-01-29T05:17:31.138Z,36.10
2023-01-29T05:18:31.111Z,35.10
2023-01-29T05:19:31.098Z,36.80
2023-01-29T05:20:31.105Z,35.40
2023-01-29T05:21:31.097Z,36.90
2023-01-29T05:22:31.067Z,35.70
2023-01-29T05:23:31.058Z,36.50
2023-01-29T05:24:31.104Z,36.70
2023-01-29T05:25:31.057Z,36.10
2023-01-29T05:26:31.070Z,36.30
2023-01-29T05:27:31.016Z,36.80
2023-01-29T05:28:31.017Z,38.20
2023-01-29T05:29:30.998Z,38.40
2023-01-29T05:30:30.999Z,35.30
2023-01-29T05:31:31.067Z,38.70
2023-01-29T05:32:30.961Z,37.60
2023-01-29T05:33:30.966Z,37.40
2023-01-29T05:34:30.942Z,38.80
2023-01-29T05:35:30.959Z,38.80
2023-01-29T05:36:30.925Z,39.30
2023-01-29T05:37:30.921Z,39.90
2023-01-29T05:38:30.904Z,39.00
2023-01-29T05:39:30.900Z,38.20
2023-01-29T05:40:30.903Z,38.40
2023-01-29T05:41:30.873Z,38.20
2023-01-29T05:42:30.864Z,38.10
2023-01-29T05:43:30.862Z,38.10
2023-01-29T05:44:30.851Z,38.90
2023-01-29T05:45:30.853Z,37.80
2023-01-29T05:46:30.832Z,38.50
2023-01-29T05:47:30.812Z,38.50
2023-01-29T05:48:30.801Z,39.00
2023-01-29T05:49:30.797Z,38.10
2023-01-29T05:50:30.884Z,37.10
2023-01-29T05:51:30.860Z,36.20
2023-01-29T05:52:30.774Z,35.80
2023-01-29T05:53:30.754Z,35.80
2023-01-29T05:54:30.744Z,36.00
2023-01-29T05:55:30.757Z,36.00
2023-01-29T05:56:30.726Z,35.30
2023-01-29T05:57:30.717Z,35.00
2023-01-29T05:58:30.705Z,35.90
2023-01-29T05:59:30.705Z,34.50
2023-01-29T06:00:30.696Z,34.00
2023-01-29T06:01:30.706Z,34.20
2023-01-29T06:02:30.678Z,34.20
2023-01-29T06:03:30.657Z,34.40
2023-01-29T06:04:30.678Z,32.90
2023-01-29T06:05:30.657Z,33.80
2023-01-29T06:06:30.625Z,34.70
2023-01-29T06:07:30.619Z,34.00
2023-01-29T06:08:30.618Z,34.10
2023-01-29T06:09:30.597Z,33.00
2023-01-29T06:10:30.600Z,34.80
2023-01-29T06:11:30.579Z,33.80
2023-01-29T06:12:30.562Z,33.70
2023-01-29T06:13:30.559Z,33.60
2023-01-29T06:14:30.547Z,34.00
2023-01-29T06:15:30.571Z,36.70
2023-01-29T06:16:30.634Z,57.10
2023-01-29T06:17:30.541Z,70.30
2023-01-29T06:18:30.502Z,47.20
2023-01-29T06:19:30.501Z,36.10
2023-01-29T06:20:30.503Z,34.40
2023-01-29T06:21:30.480Z,34.00
2023-01-29T06:22:30.461Z,34.30
2023-01-29T06:23:30.466Z,35.00
2023-01-29T06:24:30.529Z,34.00
2023-01-29T06:25:30.462Z,34.80
2023-01-29T06:26:30.434Z,34.90
2023-01-29T06:27:30.412Z,34.60
2023-01-29T06:28:30.411Z,34.30
2023-01-29T06:29:30.402Z,33.50
2023-01-29T06:30:30.437Z,34.70
2023-01-29T06:31:38.810Z,35.50
2023-01-29T06:32:31.381Z,35.60
2023-01-29T06:33:30.353Z,34.50
2023-01-29T06:34:30.343Z,35.80
2023-01-29T06:35:30.368Z,36.80
2023-01-29T06:36:30.325Z,36.00
2023-01-29T06:37:30.314Z,35.90
2023-01-29T06:38:30.303Z,35.80
2023-01-29T06:39:30.299Z,36.30
2023-01-29T06:40:30.305Z,35.90
2023-01-29T06:41:30.276Z,34.20
2023-01-29T06:42:30.265Z,35.40
2023-01-29T06:43:30.254Z,33.30
2023-01-29T06:44:30.253Z,34.20
2023-01-29T06:45:30.220Z,33.90
2023-01-29T06:46:30.225Z,32.40
2023-01-29T06:47:30.216Z,33.40
2023-01-29T06:48:30.207Z,34.90
2023-01-29T06:49:30.393Z,34.30
2023-01-29T06:50:30.206Z,32.50
2023-01-29T06:51:30.177Z,33.40
2023-01-29T06:52:30.121Z,33.10
2023-01-29T06:53:30.172Z,32.90
2023-01-29T06:54:30.156Z,33.40
2023-01-29T06:55:30.158Z,32.40
2023-01-29T06:56:30.129Z,32.50
2023-01-29T06:57:30.174Z,32.20
2023-01-29T06:58:30.112Z,31.60
2023-01-29T06:59:30.107Z,30.80
2023-01-29T07:00:31.518Z,32.00
2023-01-29T07:01:36.146Z,31.20
2023-01-29T07:02:31.079Z,31.20
2023-01-29T07:03:30.011Z,30.40
2023-01-29T07:04:29.999Z,32.10
2023-01-29T07:05:29.983Z,31.70
2023-01-29T07:06:29.991Z,31.70
2023-01-29T07:07:29.961Z,32.90
2023-01-29T07:08:29.957Z,31.30
2023-01-29T07:09:29.947Z,31.20
2023-01-29T07:10:29.932Z,32.40
2023-01-29T07:11:29.941Z,30.10
2023-01-29T07:12:29.909Z,31.80
2023-01-29T07:13:29.904Z,31.90
2023-01-29T07:14:29.891Z,31.70
2023-01-29T07:15:29.883Z,31.80
2023-01-29T07:16:29.975Z,31.00
2023-01-29T07:17:29.862Z,31.60
2023-01-29T07:18:29.876Z,31.20
2023-01-29T07:19:29.846Z,30.30
2023-01-29T07:20:29.913Z,30.90
2023-01-29T07:21:29.854Z,31.10
2023-01-29T07:22:29.814Z,31.00
2023-01-29T07:23:29.805Z,31.10
2023-01-29T07:24:29.928Z,30.70
2023-01-29T07:25:29.784Z,30.60
2023-01-29T07:26:29.795Z,30.70
2023-01-29T07:27:29.776Z,30.60
2023-01-29T07:28:29.755Z,29.60
2023-01-29T07:29:29.745Z,29.50
2023-01-29T07:30:29.744Z,30.60
2023-01-29T07:31:29.882Z,29.40
2023-01-29T07:32:29.713Z,29.00
2023-01-29T07:33:29.707Z,29.10
2023-01-29T07:34:29.707Z,29.00
2023-01-29T07:35:29.688Z,29.20
2023-01-29T07:36:29.941Z,28.90
2023-01-29T07:37:29.673Z,27.30
2023-01-29T07:38:29.665Z,28.60
2023-01-29T07:39:29.645Z,28.10
2023-01-29T07:40:29.638Z,27.70
2023-01-29T07:41:29.679Z,27.50
2023-01-29T07:42:29.619Z,27.00
2023-01-29T07:43:29.607Z,27.40
2023-01-29T07:44:29.587Z,26.10
2023-01-29T07:45:29.647Z,26.60
2023-01-29T07:46:29.593Z,27.50
2023-01-29T07:47:29.558Z,27.50
2023-01-29T07:48:29.560Z,26.80
2023-01-29T07:49:29.541Z,26.00
2023-01-29T07:50:29.529Z,25.90
2023-01-29T07:51:29.543Z,26.10
2023-01-29T07:52:29.512Z,26.70
2023-01-29T07:53:29.506Z,26.20
2023-01-29T07:54:29.491Z,26.40
2023-01-29T07:55:29.500Z,28.50
2023-01-29T07:56:29.482Z,26.80
2023-01-29T07:57:29.461Z,26.10
2023-01-29T07:58:29.461Z,26.60
2023-01-29T07:59:29.445Z,26.60
2023-01-29T08:00:29.442Z,26.10
2023-01-29T08:01:29.561Z,25.20
2023-01-29T08:02:29.453Z,25.10
2023-01-29T08:03:29.403Z,26.20
2023-01-29T08:04:29.393Z,26.00
2023-01-29T08:05:29.389Z,26.00
2023-01-29T08:06:29.392Z,25.80
2023-01-29T08:07:29.373Z,25.20
2023-01-29T08:08:29.359Z,25.50
2023-01-29T08:09:29.346Z,25.40
2023-01-29T08:10:29.326Z,25.90
2023-01-29T08:11:29.354Z,25.20
2023-01-29T08:12:29.354Z,25.90
2023-01-29T08:13:29.294Z,26.10
2023-01-29T08:14:29.295Z,26.60
2023-01-29T08:15:29.282Z,25.00
2023-01-29T08:16:29.346Z,26.90
2023-01-29T08:17:29.256Z,25.90
2023-01-29T08:18:29.257Z,25.20
2023-01-29T08:19:29.237Z,25.20
2023-01-29T08:20:29.244Z,26.30
2023-01-29T08:21:29.239Z,25.60
2023-01-29T08:22:29.238Z,25.00
2023-01-29T08:23:29.206Z,25.30
2023-01-29T08:24:41.531Z,25.00
2023-01-29T08:25:30.244Z,25.80
2023-01-29T08:26:29.189Z,25.70
2023-01-29T08:27:29.159Z,24.90
2023-01-29T08:28:29.172Z,24.40
2023-01-29T08:29:29.139Z,26.30
2023-01-29T08:30:29.142Z,25.10
2023-01-29T08:31:29.152Z,25.10
2023-01-29T08:32:29.118Z,24.60
2023-01-29T08:33:38.689Z,25.90
2023-01-29T08:34:30.089Z,25.10
2023-01-29T08:35:29.078Z,24.80
2023-01-29T08:36:29.093Z,25.70
2023-01-29T08:37:29.064Z,27.80
2023-01-29T08:38:29.065Z,27.00
2023-01-29T08:39:29.044Z,25.40
2023-01-29T08:40:29.040Z,24.80
2023-01-29T08:41:29.030Z,24.50
2023-01-29T08:42:29.045Z,25.50
2023-01-29T08:43:29.000Z,24.80
2023-01-29T08:44:28.994Z,24.30
2023-01-29T08:45:28.993Z,24.30
2023-01-29T08:46:28.992Z,24.60
2023-01-29T08:47:29.667Z,24.40
2023-01-29T08:48:28.962Z,24.50
2023-01-29T08:49:28.941Z,24.40
2023-01-29T08:50:28.937Z,24.30
2023-01-29T08:51:28.933Z,23.60
2023-01-29T08:52:28.913Z,22.80
2023-01-29T08:53:28.919Z,23.90
2023-01-29T08:54:28.893Z,24.30
2023-01-29T08:55:28.888Z,23.60
2023-01-29T08:56:28.904Z,24.20
2023-01-29T08:57:28.874Z,22.20
2023-01-29T08:58:28.855Z,23.80
2023-01-29T08:59:28.847Z,24.40
2023-01-29T09:00:28.836Z,23.60
2023-01-29T09:01:28.865Z,24.90
2023-01-29T09:02:28.857Z,24.90
2023-01-29T09:03:28.805Z,24.60
2023-01-29T09:04:28.794Z,23.90
2023-01-29T09:05:28.788Z,24.30
2023-01-29T09:06:28.786Z,25.70
2023-01-29T09:07:28.757Z,25.80
2023-01-29T09:08:28.762Z,24.50
2023-01-29T09:09:28.739Z,25.20
2023-01-29T09:10:28.727Z,24.10
2023-01-29T09:11:28.738Z,25.40
2023-01-29T09:12:28.717Z,24.80
2023-01-29T09:13:28.698Z,25.40
2023-01-29T09:14:28.688Z,25.60
2023-01-29T09:15:28.698Z,23.70
2023-01-29T09:16:28.751Z,24.30
2023-01-29T09:17:28.664Z,25.20
2023-01-29T09:18:28.657Z,25.50
2023-01-29T09:19:28.646Z,25.30
2023-01-29T09:20:28.644Z,24.90
2023-01-29T09:21:28.639Z,24.90
2023-01-29T09:22:28.656Z,26.50
2023-01-29T09:23:28.673Z,24.70
2023-01-29T09:24:28.594Z,24.50
2023-01-29T09:25:28.580Z,24.00
2023-01-29T09:26:28.624Z,24.60
2023-01-29T09:27:28.551Z,25.90
2023-01-29T09:28:28.563Z,23.40
2023-01-29T09:29:28.538Z,24.70
2023-01-29T09:30:28.531Z,23.80
2023-01-29T09:31:28.647Z,24.90
2023-01-29T09:32:53.214Z,24.30
2023-01-29T09:33:29.492Z,24.40
2023-01-29T09:34:28.492Z,26.30
2023-01-29T09:35:28.485Z,26.00
2023-01-29T09:36:28.484Z,25.60
2023-01-29T09:37:28.453Z,24.40
2023-01-29T09:38:28.451Z,25.30
2023-01-29T09:39:28.443Z,25.80
2023-01-29T09:40:28.457Z,27.10
2023-01-29T09:41:28.465Z,27.70
2023-01-29T09:42:28.406Z,27.30
2023-01-29T09:43:28.413Z,27.20
2023-01-29T09:44:28.394Z,23.90
2023-01-29T09:45:28.375Z,25.80
2023-01-29T09:46:28.379Z,26.80
2023-01-29T09:47:28.373Z,26.70
2023-01-29T09:48:28.359Z,26.30
2023-01-29T09:49:28.335Z,25.90
2023-01-29T09:50:28.327Z,26.00
2023-01-29T09:51:28.320Z,26.80
2023-01-29T09:52:28.333Z,27.20
2023-01-29T09:53:28.297Z,26.60
2023-01-29T09:54:28.291Z,27.10
2023-01-29T09:55:28.280Z,28.20
2023-01-29T09:56:28.267Z,26.20
2023-01-29T09:57:28.297Z,25.20
2023-01-29T09:58:28.259Z,25.10
2023-01-29T09:59:28.240Z,26.90
2023-01-29T10:00:28.227Z,26.30
2023-01-29T10:01:28.277Z,26.00
2023-01-29T10:02:28.228Z,24.80
2023-01-29T10:03:28.190Z,27.40
2023-01-29T10:04:28.222Z,26.30
2023-01-29T10:05:28.172Z,27.10
2023-01-29T10:06:28.180Z,27.00
2023-01-29T10:07:28.168Z,27.50
2023-01-29T10:08:28.150Z,27.60
2023-01-29T10:09:28.133Z,26.90
2023-01-29T10:10:28.133Z,26.70
2023-01-29T10:11:28.109Z,28.20
2023-01-29T10:12:28.121Z,27.60
2023-01-29T10:13:28.097Z,28.30
2023-01-29T10:14:28.079Z,26.30
2023-01-29T10:15:28.076Z,27.30
2023-01-29T10:16:28.066Z,26.20
2023-01-29T10:17:28.070Z,25.40
2023-01-29T10:18:28.044Z,26.90
2023-01-29T10:19:28.030Z,26.90
2023-01-29T10:20:28.026Z,27.10
2023-01-29T10:21:28.014Z,26.70
2023-01-29T10:22:28.022Z,27.20
2023-01-29T10:23:27.995Z,27.10
2023-01-29T10:24:27.986Z,27.70
2023-01-29T10:25:27.964Z,26.80
2023-01-29T10:26:28.012Z,29.00
2023-01-29T10:27:27.973Z,28.00
2023-01-29T10:28:27.953Z,27.20
2023-01-29T10:29:27.925Z,28.00
2023-01-29T10:30:27.933Z,28.00
2023-01-29T10:31:28.095Z,26.40
2023-01-29T10:32:27.926Z,27.40
2023-01-29T10:33:28.635Z,27.70
2023-01-29T10:34:27.894Z,27.70
2023-01-29T10:35:27.874Z,26.60
2023-01-29T10:36:27.865Z,26.50
2023-01-29T10:37:27.870Z,27.70
2023-01-29T10:38:27.845Z,27.70
2023-01-29T10:39:27.826Z,28.40
2023-01-29T10:40:27.818Z,25.30
2023-01-29T10:41:27.807Z,27.30
2023-01-29T10:42:27.816Z,28.00
2023-01-29T10:43:27.800Z,28.40
2023-01-29T10:44:27.787Z,26.70
2023-01-29T10:45:27.770Z,27.10
2023-01-29T10:46:27.769Z,27.10
2023-01-29T10:47:30.145Z,26.90
2023-01-29T10:48:27.742Z,27.20
2023-01-29T10:49:27.740Z,26.60
2023-01-29T10:50:27.719Z,26.00
2023-01-29T10:51:27.719Z,26.30
2023-01-29T10:52:27.719Z,25.70
2023-01-29T10:53:27.704Z,25.30
2023-01-29T10:54:27.679Z,26.00
2023-01-29T10:55:27.665Z,26.60
2023-01-29T10:56:27.663Z,26.80
2023-01-29T10:57:27.665Z,26.30
2023-01-29T10:58:27.640Z,27.30
2023-01-29T10:59:27.622Z,25.10
2023-01-29T11:00:27.621Z,26.60
2023-01-29T11:01:27.649Z,25.80
2023-01-29T11:02:27.654Z,25.60
2023-01-29T11:03:29.033Z,26.20
2023-01-29T11:04:27.587Z,26.80
2023-01-29T11:05:27.649Z,27.30
2023-01-29T11:06:27.563Z,26.90
2023-01-29T11:07:27.584Z,28.50
2023-01-29T11:08:27.542Z,27.70
2023-01-29T11:09:27.525Z,28.00
2023-01-29T11:10:27.532Z,26.70
2023-01-29T11:11:27.520Z,27.70
2023-01-29T11:12:27.514Z,27.50
2023-01-29T11:13:27.567Z,27.80
2023-01-29T11:14:27.480Z,26.20
2023-01-29T11:15:27.465Z,27.60
2023-01-29T11:16:27.505Z,26.80
2023-01-29T11:17:27.465Z,28.20
2023-01-29T11:18:27.448Z,28.10
2023-01-29T11:19:27.435Z,28.70
2023-01-29T11:20:27.429Z,27.90
2023-01-29T11:21:27.415Z,27.70
2023-01-29T11:22:27.461Z,26.90
2023-01-29T11:23:27.386Z,24.40
2023-01-29T11:24:27.377Z,26.90
2023-01-29T11:25:27.366Z,26.80
2023-01-29T11:26:27.372Z,27.10
2023-01-29T11:27:27.375Z,28.10
2023-01-29T11:28:27.337Z,27.90
2023-01-29T11:29:27.357Z,27.60
2023-01-29T11:30:27.328Z,27.70
2023-01-29T11:31:27.406Z,27.50
2023-01-29T11:32:27.323Z,27.50
2023-01-29T11:33:27.291Z,26.80
2023-01-29T11:34:27.283Z,27.00
2023-01-29T11:35:27.267Z,24.30
2023-01-29T11:36:28.495Z,28.20
2023-01-29T11:37:27.287Z,28.60
2023-01-29T11:38:27.251Z,27.10
2023-01-29T11:39:27.227Z,27.80
2023-01-29T11:40:27.222Z,29.50
2023-01-29T11:41:27.215Z,28.70
2023-01-29T11:42:27.222Z,28.00
2023-01-29T11:43:27.184Z,28.00
2023-01-29T11:44:27.190Z,27.10
2023-01-29T11:45:27.165Z,27.20
2023-01-29T11:46:27.195Z,27.50
2023-01-29T11:47:27.182Z,29.10
2023-01-29T11:48:27.142Z,27.40
2023-01-29T11:49:27.123Z,27.30
2023-01-29T11:50:27.120Z,24.70
2023-01-29T11:51:27.104Z,28.20
2023-01-29T11:52:27.120Z,29.00
2023-01-29T11:53:27.087Z,28.60
2023-01-29T11:54:27.086Z,28.10
2023-01-29T11:55:27.520Z,29.20
2023-01-29T11:56:27.064Z,28.00
2023-01-29T11:57:27.064Z,27.70
2023-01-29T11:58:27.038Z,28.10
2023-01-29T11:59:27.026Z,25.80
2023-01-29T12:00:27.032Z,25.50
2023-01-29T12:01:27.037Z,27.70
2023-01-29T12:02:27.016Z,28.90
2023-01-29T12:03:27.053Z,29.30
2023-01-29T12:04:26.976Z,29.50
2023-01-29T12:05:26.970Z,27.90
2023-01-29T12:06:26.959Z,27.70
2023-01-29T12:07:26.959Z,28.30
2023-01-29T12:08:26.938Z,27.20
2023-01-29T12:09:26.928Z,29.20
2023-01-29T12:10:26.918Z,28.40
2023-01-29T12:11:26.899Z,27.60
2023-01-29T12:12:26.926Z,27.90
2023-01-29T12:13:26.900Z,29.40
2023-01-29T12:14:26.877Z,28.50
2023-01-29T12:15:26.886Z,34.90
2023-01-29T12:16:26.927Z,30.70
2023-01-29T12:17:26.858Z,28.40
2023-01-29T12:18:26.839Z,28.40
2023-01-29T12:19:26.823Z,28.30
2023-01-29T12:20:26.851Z,29.20
2023-01-29T12:21:26.813Z,28.00
2023-01-29T12:22:26.810Z,28.30
2023-01-29T12:23:26.793Z,30.10
2023-01-29T12:24:26.781Z,30.20
2023-01-29T12:25:26.771Z,28.40
2023-01-29T12:26:26.791Z,29.40
2023-01-29T12:27:26.759Z,29.10
2023-01-29T12:28:26.736Z,29.80
2023-01-29T12:29:26.725Z,29.20
2023-01-29T12:30:26.744Z,28.90
2023-01-29T12:31:26.776Z,29.50
2023-01-29T12:32:26.719Z,29.20
2023-01-29T12:33:26.697Z,28.60
2023-01-29T12:34:26.673Z,27.40
2023-01-29T12:35:26.671Z,27.20
2023-01-29T12:36:26.653Z,31.00
2023-01-29T12:37:26.696Z,30.20
2023-01-29T12:38:26.640Z,28.60
2023-01-29T12:39:26.633Z,29.90
2023-01-29T12:40:26.614Z,30.40
2023-01-29T12:41:26.603Z,30.50
2023-01-29T12:42:26.614Z,30.90
2023-01-29T12:43:26.598Z,30.70
2023-01-29T12:44:26.567Z,30.40
2023-01-29T12:45:26.571Z,30.20
2023-01-29T12:46:26.590Z,28.20
2023-01-29T12:47:26.571Z,31.10
2023-01-29T12:48:26.528Z,30.30
2023-01-29T12:49:26.524Z,28.60
2023-01-29T12:50:26.513Z,30.60
2023-01-29T12:51:26.527Z,30.60
2023-01-29T12:52:26.486Z,29.60